Time;durP1;ratioP1;P1;durP2;ratioP2;P2;SDS_P1;SDS_P2;PMS_P1;PMS_P2;Temp;Humidity;BMP_temperature;BMP_pressure;BME280_temperature;BME280_humidity;BME280_pressure;Samples;Min_cycle;Max_cycle;Signal;HPM_P1;HPM_P2
2022/03/17 00:02:23;;;;;;;10.97;5.90;;;12.50;99.90;;;;;;4954793;28;20671;-72
2022/03/17 00:04:50;;;;;;;10.20;5.20;;;12.60;99.90;;;;;;4954209;28;20208;-73
2022/03/17 00:07:17;;;;;;;10.27;5.50;;;12.60;99.90;;;;;;4954648;28;20199;-72
2022/03/17 00:09:44;;;;;;;11.03;6.30;;;12.50;99.90;;;;;;4954732;28;20298;-72
2022/03/17 00:12:13;;;;;;;10.20;5.30;;;12.50;99.90;;;;;;4954886;28;20563;-72
2022/03/17 00:14:41;;;;;;;13.17;5.77;;;12.60;99.90;;;;;;4954269;28;20235;-72
2022/03/17 00:17:08;;;;;;;10.97;5.63;;;12.70;99.90;;;;;;4954743;28;20208;-73
2022/03/17 00:19:36;;;;;;;12.70;5.90;;;12.70;99.90;;;;;;4954304;28;20773;-72
2022/03/17 00:22:08;;;;;;;12.13;6.47;;;12.70;99.90;;;;;;4954416;28;20207;-72
2022/03/17 00:24:36;;;;;;;13.13;6.23;;;12.70;99.90;;;;;;4954459;28;20290;-72
2022/03/17 00:27:05;;;;;;;11.03;6.10;;;12.70;99.90;;;;;;4954691;28;20208;-72
2022/03/17 00:29:32;;;;;;;12.03;5.97;;;12.70;99.90;;;;;;4957928;28;20224;-72
2022/03/17 00:32:01;;;;;;;14.10;5.77;;;12.70;99.90;;;;;;4958481;28;20667;-73
2022/03/17 00:34:27;;;;;;;15.97;6.47;;;12.70;99.90;;;;;;4958337;28;20695;-72
2022/03/17 00:36:54;;;;;;;12.63;6.23;;;12.70;99.90;;;;;;4958361;28;20604;-72
2022/03/17 00:39:21;;;;;;;13.43;6.30;;;12.80;99.90;;;;;;4958530;28;20238;-73
2022/03/17 00:41:48;;;;;;;14.60;6.70;;;12.80;99.90;;;;;;4958630;28;20583;-73
2022/03/17 00:44:15;;;;;;;13.80;6.50;;;12.80;99.90;;;;;;4958508;28;20533;-73
2022/03/17 00:46:42;;;;;;;13.07;6.90;;;12.90;99.90;;;;;;4958237;28;20254;-73
2022/03/17 00:49:12;;;;;;;16.33;6.80;;;12.90;99.90;;;;;;4957954;28;20227;-73
2022/03/17 00:51:40;;;;;;;16.47;7.10;;;12.80;99.90;;;;;;4957630;28;20231;-73
2022/03/17 00:54:06;;;;;;;14.80;6.57;;;12.80;99.90;;;;;;4958146;28;20240;-73
2022/03/17 00:56:33;;;;;;;12.93;6.97;;;12.80;99.90;;;;;;4958300;28;20218;-73
2022/03/17 00:59:00;;;;;;;15.87;6.77;;;12.70;99.90;;;;;;4958147;28;20227;-73
2022/03/17 01:01:27;;;;;;;15.03;6.60;;;12.60;99.90;;;;;;4957540;28;20204;-73
2022/03/17 01:03:53;;;;;;;14.40;7.03;;;12.60;99.90;;;;;;4958131;28;20234;-74
2022/03/17 01:06:22;;;;;;;15.67;7.40;;;12.60;99.90;;;;;;4957918;28;20212;-72
2022/03/17 01:08:48;;;;;;;16.43;6.97;;;12.50;99.90;;;;;;4975827;28;20249;-73
2022/03/17 01:11:15;;;;;;;14.87;7.03;;;12.60;99.90;;;;;;4976854;28;20207;-73
2022/03/17 01:13:42;;;;;;;17.20;7.30;;;12.70;99.90;;;;;;4977481;28;20235;-72
2022/03/17 01:16:09;;;;;;;13.07;6.40;;;12.70;99.90;;;;;;4976778;28;20209;-72
2022/03/17 01:18:35;;;;;;;13.33;7.13;;;12.60;99.90;;;;;;4976777;28;20231;-73
2022/03/17 01:21:02;;;;;;;11.97;6.27;;;12.50;99.90;;;;;;4977043;28;20246;-72
2022/03/17 01:23:30;;;;;;;12.73;7.03;;;12.50;99.90;;;;;;4976580;28;20223;-72
2022/03/17 01:25:57;;;;;;;16.77;6.83;;;12.50;99.90;;;;;;4976672;28;20203;-72
2022/03/17 01:28:24;;;;;;;11.73;6.30;;;12.50;99.90;;;;;;4976814;28;20777;-72
2022/03/17 01:30:52;;;;;;;11.17;6.30;;;12.40;99.90;;;;;;4977241;28;20211;-72
2022/03/17 01:33:19;;;;;;;15.67;6.70;;;12.40;99.90;;;;;;4976800;28;20738;-72
2022/03/17 01:35:46;;;;;;;14.60;6.90;;;12.50;99.90;;;;;;4976518;28;20218;-72
2022/03/17 01:38:12;;;;;;;12.20;6.13;;;12.50;99.90;;;;;;4976509;28;20227;-72
2022/03/17 01:40:40;;;;;;;10.50;5.43;;;12.50;99.90;;;;;;4975527;28;20222;-73
2022/03/17 01:43:07;;;;;;;9.57;5.33;;;12.50;99.90;;;;;;4965740;28;20208;-72
2022/03/17 01:45:34;;;;;;;9.70;5.63;;;12.40;99.90;;;;;;4957074;28;20928;-72
2022/03/17 01:48:01;;;;;;;7.67;4.43;;;12.40;99.90;;;;;;4973571;28;20223;-72
2022/03/17 01:50:28;;;;;;;8.10;4.77;;;12.30;99.90;;;;;;4976376;28;20207;-72
2022/03/17 01:52:55;;;;;;;9.00;5.27;;;12.20;99.90;;;;;;4976267;28;20203;-72
2022/03/17 01:55:22;;;;;;;9.40;4.90;;;12.00;99.90;;;;;;4976483;28;20231;-72
2022/03/17 01:57:50;;;;;;;8.40;5.00;;;11.60;99.90;;;;;;4976339;28;20582;-72
2022/03/17 02:00:19;;;;;;;11.20;4.90;;;11.50;99.90;;;;;;4974656;28;20234;-72
2022/03/17 02:02:48;;;;;;;9.00;4.80;;;11.40;99.90;;;;;;4957062;29;20208;-72
2022/03/17 02:05:15;;;;;;;10.63;5.37;;;11.50;99.90;;;;;;4957200;28;20212;-73
2022/03/17 02:07:44;;;;;;;8.50;4.93;;;11.40;99.90;;;;;;4965568;28;20219;-72
2022/03/17 02:10:11;;;;;;;11.53;5.37;;;11.30;99.90;;;;;;4956764;28;20218;-72
2022/03/17 02:15:20;;;;;;;10.53;5.40;;;11.00;99.90;;;;;;4951963;28;20243;-73
2022/03/17 02:17:48;;;;;;;12.97;6.20;;;10.90;99.90;;;;;;4956347;28;20235;-73
2022/03/17 02:20:16;;;;;;;11.47;5.80;;;10.90;99.90;;;;;;4956576;28;20258;-73
2022/03/17 02:22:45;;;;;;;11.37;6.00;;;10.70;99.90;;;;;;4956408;28;20212;-73
2022/03/17 02:28:02;;;;;;;14.80;7.40;;;10.60;99.90;;;;;;4956588;29;20227;-74
2022/03/17 02:30:29;;;;;;;14.40;6.43;;;10.50;99.90;;;;;;4956527;28;20208;-73
2022/03/17 02:33:00;;;;;;;15.33;6.80;;;10.40;99.90;;;;;;4956784;28;20219;-73
2022/03/17 02:35:28;;;;;;;16.63;7.00;;;10.40;99.90;;;;;;4956356;28;20235;-73
2022/03/17 02:37:56;;;;;;;18.23;6.97;;;10.40;99.90;;;;;;4956150;28;20228;-73
2022/03/17 02:40:25;;;;;;;13.33;6.40;;;10.40;99.90;;;;;;4956535;28;20214;-72
2022/03/17 02:42:53;;;;;;;11.33;6.23;;;10.40;99.90;;;;;;4955977;28;20204;-73
2022/03/17 02:45:19;;;;;;;11.80;6.27;;;10.40;99.90;;;;;;4974936;28;20199;-73
2022/03/17 02:47:46;;;;;;;16.80;6.83;;;10.40;99.90;;;;;;4975539;28;20231;-73
2022/03/17 02:50:13;;;;;;;12.30;6.17;;;10.50;99.90;;;;;;4975143;28;20666;-73
2022/03/17 02:52:41;;;;;;;13.50;7.27;;;10.50;99.90;;;;;;4975320;28;20211;-74
2022/03/17 02:55:10;;;;;;;14.57;6.70;;;10.40;99.90;;;;;;4975005;28;20230;-73
2022/03/17 02:57:38;;;;;;;13.87;5.97;;;10.40;99.90;;;;;;4975099;28;20309;-73
2022/03/17 03:00:07;;;;;;;15.07;6.73;;;10.40;99.90;;;;;;4975211;28;20213;-73
2022/03/17 03:02:34;;;;;;;11.43;6.20;;;10.30;99.90;;;;;;4957869;28;20200;-73
2022/03/17 03:05:01;;;;;;;14.10;6.93;;;10.20;99.90;;;;;;4955787;28;20219;-73
2022/03/17 03:07:27;;;;;;;14.13;5.90;;;10.20;99.90;;;;;;4955396;28;20211;-73
2022/03/17 03:09:56;;;;;;;11.27;5.13;;;10.20;99.90;;;;;;4956244;28;20208;-73
2022/03/17 03:12:22;;;;;;;11.53;5.77;;;10.20;99.90;;;;;;4955774;28;20200;-74
2022/03/17 03:14:51;;;;;;;12.97;5.70;;;10.30;99.90;;;;;;4955246;28;20236;-74
2022/03/17 03:17:21;;;;;;;10.67;5.07;;;10.30;99.90;;;;;;4955510;28;20208;-73
2022/03/17 03:19:47;;;;;;;11.07;5.93;;;10.50;99.90;;;;;;4955112;28;20291;-73
2022/03/17 03:22:14;;;;;;;11.33;5.73;;;10.40;99.90;;;;;;4955604;28;20656;-73
2022/03/17 03:24:41;;;;;;;10.53;5.23;;;10.40;99.90;;;;;;4955377;28;20297;-73
2022/03/17 03:27:08;;;;;;;8.93;5.37;;;10.30;99.90;;;;;;4955758;28;20208;-73
2022/03/17 03:29:35;;;;;;;12.67;6.10;;;10.30;99.90;;;;;;4955473;28;20230;-73
2022/03/17 03:32:04;;;;;;;11.20;5.63;;;10.30;99.90;;;;;;4955431;28;20642;-73
2022/03/17 03:34:32;;;;;;;9.97;5.70;;;10.30;99.90;;;;;;4955371;28;20240;-73
2022/03/17 03:39:50;;;;;;;9.43;5.47;;;10.30;99.90;;;;;;4944704;28;20212;-73
2022/03/17 03:42:17;;;;;;;11.30;5.10;;;10.40;99.90;;;;;;4955254;28;20214;-74
2022/03/17 03:44:44;;;;;;;10.27;5.07;;;10.30;99.90;;;;;;4955046;28;20677;-74
2022/03/17 03:47:12;;;;;;;9.57;5.10;;;10.30;99.90;;;;;;4955103;28;20211;-73
2022/03/17 03:49:40;;;;;;;8.33;4.90;;;10.30;99.90;;;;;;4954878;28;20250;-73
2022/03/17 03:52:08;;;;;;;8.23;4.67;;;10.30;99.90;;;;;;4954894;28;20219;-73
2022/03/17 03:54:35;;;;;;;10.30;5.00;;;10.40;99.90;;;;;;4954555;28;20631;-73
2022/03/17 03:57:02;;;;;;;9.57;4.20;;;10.30;99.90;;;;;;4954846;28;20216;-73
2022/03/17 03:59:31;;;;;;;9.70;3.90;;;10.20;99.90;;;;;;4954962;28;20235;-73
2022/03/17 04:01:59;;;;;;;8.07;3.97;;;10.30;99.90;;;;;;4953805;28;20227;-73
2022/03/17 04:04:28;;;;;;;8.37;3.90;;;10.20;99.90;;;;;;4954213;28;20575;-73
2022/03/17 04:06:58;;;;;;;6.23;3.50;;;10.20;99.90;;;;;;4954755;28;20219;-74
2022/03/17 04:09:27;;;;;;;7.83;3.87;;;10.10;99.90;;;;;;4954670;28;20718;-73
2022/03/17 04:11:55;;;;;;;7.57;3.87;;;10.00;99.90;;;;;;4954665;28;20684;-74
2022/03/17 04:14:23;;;;;;;6.33;3.83;;;9.90;99.90;;;;;;4954883;28;20232;-73
2022/03/17 04:16:50;;;;;;;8.37;3.43;;;10.00;99.90;;;;;;4953990;28;20210;-73
2022/03/17 04:19:17;;;;;;;6.53;3.53;;;10.00;99.90;;;;;;4954314;28;20717;-73
2022/03/17 04:21:47;;;;;;;6.53;3.60;;;9.90;99.90;;;;;;4954566;28;20220;-73
2022/03/17 04:24:14;;;;;;;7.03;4.07;;;9.90;99.90;;;;;;4954516;28;20212;-73
2022/03/17 04:26:41;;;;;;;6.43;4.00;;;9.90;99.90;;;;;;4954295;28;20270;-73
2022/03/17 04:29:09;;;;;;;4.80;3.43;;;9.90;99.90;;;;;;4954769;28;20234;-73
2022/03/17 04:31:37;;;;;;;6.37;3.50;;;10.00;99.90;;;;;;4955012;28;20208;-73
2022/03/17 04:34:04;;;;;;;7.23;3.73;;;10.10;99.90;;;;;;4954785;28;20211;-73
2022/03/17 04:36:31;;;;;;;8.37;4.03;;;10.00;99.90;;;;;;4954185;28;20747;-73
2022/03/17 04:39:00;;;;;;;6.73;3.80;;;10.00;99.90;;;;;;4954544;28;20232;-73
2022/03/17 04:41:27;;;;;;;7.23;4.23;;;9.80;99.90;;;;;;4954518;28;20212;-73
2022/03/17 04:43:54;;;;;;;7.10;3.87;;;9.80;99.90;;;;;;4954616;28;20215;-73
2022/03/17 04:46:21;;;;;;;6.80;3.87;;;9.70;99.90;;;;;;4954598;28;20567;-73
2022/03/17 04:48:48;;;;;;;8.57;3.83;;;9.70;99.90;;;;;;4953863;28;20279;-73
2022/03/17 04:51:14;;;;;;;7.40;4.10;;;9.70;99.90;;;;;;4954423;29;20214;-73
2022/03/17 04:53:41;;;;;;;5.87;3.70;;;9.70;99.90;;;;;;4954197;29;20683;-73
2022/03/17 04:56:11;;;;;;;6.27;3.60;;;9.80;99.90;;;;;;4954451;28;20236;-74
2022/03/17 04:58:40;;;;;;;6.53;3.60;;;9.70;99.90;;;;;;4954385;28;20726;-73
2022/03/17 05:01:08;;;;;;;7.50;4.10;;;9.70;99.90;;;;;;4953513;28;20283;-73
2022/03/17 05:03:35;;;;;;;5.77;3.37;;;9.70;99.90;;;;;;4953386;28;20215;-73
2022/03/17 05:06:03;;;;;;;5.67;3.67;;;9.70;99.90;;;;;;4954099;29;20212;-73
2022/03/17 05:08:30;;;;;;;7.33;3.40;;;9.70;99.90;;;;;;4954125;28;20228;-73
2022/03/17 05:10:57;;;;;;;5.60;3.30;;;9.60;99.90;;;;;;4953960;28;20671;-73
2022/03/17 05:13:25;;;;;;;5.53;3.13;;;9.50;99.90;;;;;;4954636;28;20307;-73
2022/03/17 05:15:52;;;;;;;5.60;3.00;;;9.40;99.90;;;;;;4957412;28;20239;-73
2022/03/17 05:18:19;;;;;;;6.47;3.30;;;9.30;99.90;;;;;;4957435;28;20227;-73
2022/03/17 05:20:47;;;;;;;11.13;3.20;;;9.30;99.90;;;;;;4957516;28;20274;-73
2022/03/17 05:23:15;;;;;;;7.93;3.27;;;9.30;99.90;;;;;;4957251;28;20663;-73
2022/03/17 05:25:44;;;;;;;4.70;3.00;;;9.30;99.90;;;;;;4957435;28;20784;-73
2022/03/17 05:28:11;;;;;;;5.57;3.30;;;9.40;99.90;;;;;;4957730;28;20228;-73
2022/03/17 05:30:40;;;;;;;4.80;2.73;;;9.40;99.90;;;;;;4958103;28;20215;-73
2022/03/17 05:33:08;;;;;;;5.90;2.90;;;9.50;99.90;;;;;;4957476;28;20211;-74
2022/03/17 05:35:35;;;;;;;4.60;2.53;;;9.50;99.90;;;;;;4957480;28;20240;-73
2022/03/17 05:38:02;;;;;;;5.80;2.80;;;9.50;99.90;;;;;;4956761;28;20703;-73
2022/03/17 05:40:29;;;;;;;5.77;2.63;;;9.40;99.90;;;;;;4957100;29;20659;-73
2022/03/17 05:43:00;;;;;;;5.07;2.90;;;9.50;99.90;;;;;;4957686;28;20207;-73
2022/03/17 05:45:28;;;;;;;5.47;2.67;;;9.60;99.90;;;;;;4961134;28;20211;-73
2022/03/17 05:47:58;;;;;;;5.97;2.47;;;9.50;99.90;;;;;;4976179;28;20238;-73
2022/03/17 05:50:26;;;;;;;5.67;2.73;;;9.60;99.90;;;;;;4976103;28;20211;-73
2022/03/17 05:52:54;;;;;;;5.37;2.43;;;9.50;99.90;;;;;;4976714;28;20426;-73
2022/03/17 05:55:22;;;;;;;7.10;2.70;;;9.60;99.90;;;;;;4976652;28;20231;-73
2022/03/17 05:57:50;;;;;;;7.63;2.87;;;9.50;99.90;;;;;;4976371;28;20231;-73
2022/03/17 06:00:19;;;;;;;6.67;2.90;;;9.50;99.90;;;;;;4968213;28;20295;-73
2022/03/17 06:02:46;;;;;;;4.80;2.60;;;9.40;99.90;;;;;;4963180;28;20206;-73
2022/03/17 06:05:15;;;;;;;4.57;2.53;;;9.40;99.90;;;;;;4975680;28;20215;-73
2022/03/17 06:07:43;;;;;;;6.17;2.83;;;9.30;99.90;;;;;;4975225;28;20223;-74
2022/03/17 06:10:12;;;;;;;6.30;3.03;;;9.40;99.90;;;;;;4976493;28;20214;-74
2022/03/17 06:12:39;;;;;;;4.90;2.67;;;9.40;99.90;;;;;;4975958;28;20575;-73
2022/03/17 06:15:08;;;;;;;5.00;2.63;;;9.40;99.90;;;;;;4975153;28;20702;-73
2022/03/17 06:17:39;;;;;;;8.00;2.77;;;9.30;99.90;;;;;;4975290;28;20294;-73
2022/03/17 06:20:09;;;;;;;5.93;3.50;;;9.20;99.90;;;;;;4970038;28;20216;-73
2022/03/17 06:22:38;;;;;;;4.57;2.60;;;9.30;99.90;;;;;;4956469;28;20256;-73
2022/03/17 06:25:06;;;;;;;4.73;2.83;;;9.20;99.90;;;;;;4975636;28;20670;-73
2022/03/17 06:27:34;;;;;;;4.67;2.67;;;9.30;99.90;;;;;;4975197;28;20215;-73
2022/03/17 06:30:01;;;;;;;8.27;2.60;;;9.40;99.90;;;;;;4975583;28;20242;-74
2022/03/17 06:32:29;;;;;;;5.30;2.90;;;9.50;99.90;;;;;;4975865;28;20211;-73
2022/03/17 06:34:56;;;;;;;4.80;2.90;;;9.50;99.90;;;;;;4975387;28;20227;-73
2022/03/17 06:37:23;;;;;;;7.57;3.13;;;9.50;99.90;;;;;;4975315;28;20199;-73
2022/03/17 06:39:51;;;;;;;7.40;3.20;;;9.50;99.90;;;;;;4975357;28;20207;-73
2022/03/17 06:42:18;;;;;;;11.73;3.53;;;9.60;99.90;;;;;;4975453;28;20207;-73
2022/03/17 06:44:44;;;;;;;5.23;2.87;;;9.50;99.90;;;;;;4975259;28;20207;-73
2022/03/17 06:47:11;;;;;;;5.00;3.00;;;9.50;99.90;;;;;;4975525;28;20214;-73
2022/03/17 06:49:38;;;;;;;6.40;3.10;;;9.60;99.90;;;;;;4973904;28;20228;-73
2022/03/17 06:52:05;;;;;;;6.40;3.57;;;9.50;99.90;;;;;;4974830;28;20207;-73
2022/03/17 06:54:32;;;;;;;6.63;3.00;;;9.40;99.90;;;;;;4972183;28;20205;-73
2022/03/17 06:57:00;;;;;;;8.30;2.90;;;9.50;99.90;;;;;;4955527;28;20246;-73
2022/03/17 06:59:27;;;;;;;6.30;2.97;;;9.60;99.90;;;;;;4955643;28;20232;-73
2022/03/17 07:01:54;;;;;;;7.00;2.80;;;9.60;99.90;;;;;;4966902;28;20213;-73
2022/03/17 07:04:20;;;;;;;6.63;3.33;;;9.60;99.90;;;;;;4974889;28;20294;-73
2022/03/17 07:06:47;;;;;;;4.23;2.50;;;9.70;99.90;;;;;;4974594;28;20761;-73
2022/03/17 07:09:14;;;;;;;5.43;2.60;;;9.60;99.90;;;;;;4974962;28;20227;-73
2022/03/17 07:11:42;;;;;;;3.87;2.13;;;9.70;99.90;;;;;;4974817;28;20301;-73
2022/03/17 07:14:11;;;;;;;4.70;2.33;;;9.70;99.90;;;;;;4959631;28;20204;-73
2022/03/17 07:16:38;;;;;;;4.07;2.30;;;9.60;99.90;;;;;;4955566;28;20242;-73
2022/03/17 07:19:07;;;;;;;4.90;2.10;;;9.60;99.90;;;;;;4955773;28;20227;-73
2022/03/17 07:21:34;;;;;;;5.53;2.43;;;9.60;99.90;;;;;;4955278;28;20219;-73
2022/03/17 07:24:01;;;;;;;6.63;2.20;;;9.60;99.90;;;;;;4955267;28;20211;-73
2022/03/17 07:26:27;;;;;;;4.50;2.60;;;9.60;99.90;;;;;;4955081;28;20666;-73
2022/03/17 07:28:54;;;;;;;4.33;2.23;;;9.60;99.90;;;;;;4955275;28;20227;-73
2022/03/17 07:31:24;;;;;;;3.47;2.00;;;9.50;99.90;;;;;;4955678;28;20212;-73
2022/03/17 07:33:51;;;;;;;3.87;2.03;;;9.60;99.90;;;;;;4954976;28;20738;-73
2022/03/17 07:36:18;;;;;;;2.77;1.80;;;9.80;99.90;;;;;;4955298;28;20251;-73
2022/03/17 07:38:44;;;;;;;3.17;1.67;;;9.90;99.90;;;;;;4954346;28;20710;-73
2022/03/17 07:41:11;;;;;;;3.53;2.10;;;9.80;99.90;;;;;;4960352;28;20528;-73
2022/03/17 07:43:38;;;;;;;2.60;1.90;;;9.70;99.90;;;;;;4973687;28;20666;-73
2022/03/17 07:46:05;;;;;;;4.83;2.07;;;9.80;99.90;;;;;;4974200;28;20567;-73
2022/03/17 07:48:33;;;;;;;2.83;1.63;;;9.80;99.90;;;;;;4973934;28;20223;-73
2022/03/17 07:51:00;;;;;;;2.73;2.30;;;9.80;99.90;;;;;;4974538;28;20207;-73
2022/03/17 07:53:27;;;;;;;3.60;1.90;;;9.80;99.90;;;;;;4968048;28;20204;-73
2022/03/17 07:55:55;;;;;;;5.53;1.83;;;9.80;99.90;;;;;;4955109;28;20239;-73
2022/03/17 07:58:23;;;;;;;4.33;1.80;;;9.90;99.90;;;;;;4968149;28;20274;-73
2022/03/17 08:00:51;;;;;;;2.27;1.40;;;9.80;99.90;;;;;;4973779;28;20212;-73
2022/03/17 08:03:18;;;;;;;4.23;1.57;;;9.80;99.90;;;;;;4974019;28;20218;-73
2022/03/17 08:05:47;;;;;;;3.67;2.00;;;9.80;99.90;;;;;;4974005;28;20210;-73
2022/03/17 08:08:14;;;;;;;4.93;2.07;;;9.80;99.90;;;;;;4974053;28;20227;-73
2022/03/17 08:10:41;;;;;;;7.50;2.30;;;9.70;99.90;;;;;;4973640;28;20648;-73
2022/03/17 08:13:08;;;;;;;2.70;1.77;;;9.70;99.90;;;;;;4973789;28;20199;-73
2022/03/17 08:15:34;;;;;;;2.67;1.50;;;9.60;99.90;;;;;;4957161;28;20220;-73
2022/03/17 08:18:01;;;;;;;3.43;1.80;;;9.60;99.90;;;;;;4954440;28;20235;-73
2022/03/17 08:20:28;;;;;;;3.63;1.43;;;9.70;99.90;;;;;;4955180;28;20218;-72
2022/03/17 08:22:56;;;;;;;3.20;1.30;;;9.80;99.90;;;;;;4973302;28;20207;-73
2022/03/17 08:25:23;;;;;;;2.83;1.40;;;9.70;99.90;;;;;;4973972;28;20234;-73
2022/03/17 08:27:51;;;;;;;3.83;1.70;;;9.80;99.90;;;;;;4973864;28;20223;-73
2022/03/17 08:30:18;;;;;;;7.80;1.50;;;10.00;99.90;;;;;;4973742;28;20200;-73
2022/03/17 08:32:44;;;;;;;3.00;1.43;;;10.00;99.90;;;;;;4970915;28;20304;-73
2022/03/17 08:35:13;;;;;;;3.57;1.50;;;9.90;99.90;;;;;;4973316;28;20294;-73
2022/03/17 08:37:40;;;;;;;5.20;1.60;;;9.90;99.90;;;;;;4973313;28;20223;-73
2022/03/17 08:40:09;;;;;;;3.43;1.40;;;9.90;99.90;;;;;;4973652;28;20208;-72
2022/03/17 08:42:36;;;;;;;3.03;1.43;;;9.80;99.90;;;;;;4973492;28;20196;-73
2022/03/17 08:49:18;;;;;;;3.10;1.30;;;9.80;99.90;;;;;;4973205;28;20298;-73
2022/03/17 08:50:35;;;;;;;3.37;1.47;;;9.90;99.90;;;;;;4974812;28;20277;-73
2022/03/17 08:53:02;;;;;;;2.17;1.00;;;10.10;99.90;;;;;;4974963;28;20200;-72
2022/03/17 08:55:30;;;;;;;1.77;1.10;;;10.00;99.90;;;;;;4974491;28;20562;-73
2022/03/17 08:57:57;;;;;;;1.67;0.90;;;10.00;99.90;;;;;;4976983;28;20250;-74
2022/03/17 09:00:24;;;;;;;6.23;1.07;;;9.90;99.90;;;;;;4976976;28;20286;-73
2022/03/17 09:02:53;;;;;;;1.73;1.10;;;9.90;99.90;;;;;;4975860;28;20243;-73
2022/03/17 09:05:20;;;;;;;1.60;1.00;;;9.90;99.90;;;;;;4976535;28;20203;-73
2022/03/17 09:07:46;;;;;;;4.37;1.10;;;9.90;99.90;;;;;;4976227;28;20241;-73
2022/03/17 09:10:13;;;;;;;1.20;0.90;;;9.90;99.90;;;;;;4977187;28;20212;-73
2022/03/17 09:12:42;;;;;;;1.53;0.90;;;9.90;99.90;;;;;;4977021;28;20211;-73
2022/03/17 09:15:11;;;;;;;1.87;1.20;;;9.90;99.90;;;;;;4970142;28;20211;-73
2022/03/17 09:17:41;;;;;;;1.50;0.93;;;10.00;99.90;;;;;;4975616;28;20339;-73
2022/03/17 09:20:15;;;;;;;1.77;1.00;;;10.10;99.90;;;;;;4973038;28;20211;-73
2022/03/17 09:22:43;;;;;;;2.00;1.00;;;10.20;99.90;;;;;;4973540;28;20224;-74
2022/03/17 09:25:11;;;;;;;1.13;0.90;;;10.20;99.90;;;;;;4971905;28;20214;-73
2022/03/17 09:27:38;;;;;;;1.00;0.90;;;10.20;99.90;;;;;;4959438;28;20236;-73
2022/03/17 09:30:07;;;;;;;1.93;0.80;;;10.20;99.90;;;;;;4961115;28;20681;-73
2022/03/17 09:32:35;;;;;;;2.73;0.80;;;10.30;99.90;;;;;;4975990;28;20203;-73
2022/03/17 09:35:02;;;;;;;1.50;0.80;;;10.40;99.90;;;;;;4976021;28;20207;-73
2022/03/17 09:37:29;;;;;;;1.50;0.80;;;10.40;99.90;;;;;;4974964;28;20270;-73
2022/03/17 09:39:55;;;;;;;1.10;0.70;;;10.60;99.90;;;;;;4975330;28;20200;-73
2022/03/17 09:42:23;;;;;;;2.13;0.90;;;10.90;99.90;;;;;;4975148;28;20538;-73
2022/03/17 09:44:52;;;;;;;5.40;1.10;;;11.00;99.90;;;;;;4959038;28;20231;-73
2022/03/17 09:47:27;;;;;;;1.63;0.70;;;11.10;99.90;;;;;;4957101;28;20270;-72
2022/03/17 09:49:56;;;;;;;1.30;0.83;;;11.10;99.90;;;;;;4971670;28;20242;-73
2022/03/17 09:52:24;;;;;;;1.50;0.70;;;10.90;99.90;;;;;;4975761;28;20674;-73
2022/03/17 09:54:52;;;;;;;2.23;0.70;;;11.00;99.90;;;;;;4976163;28;20213;-72
2022/03/17 09:57:20;;;;;;;1.20;0.70;;;11.00;99.90;;;;;;4974626;28;20690;-73
2022/03/17 09:59:48;;;;;;;4.00;0.90;;;10.90;99.90;;;;;;4975432;28;20558;-73
2022/03/17 10:02:17;;;;;;;2.00;0.50;;;10.70;99.90;;;;;;4974701;28;20658;-73
2022/03/17 10:04:46;;;;;;;2.07;0.80;;;10.70;99.90;;;;;;4975611;28;20211;-73
2022/03/17 10:07:13;;;;;;;1.33;1.07;;;10.90;99.90;;;;;;4975669;28;20578;-73
2022/03/17 10:09:40;;;;;;;1.20;0.63;;;11.10;99.90;;;;;;4975990;28;20227;-73
2022/03/17 10:12:10;;;;;;;3.60;0.70;;;11.10;99.90;;;;;;4969699;28;20216;-73
2022/03/17 10:14:39;;;;;;;1.33;0.80;;;11.00;99.90;;;;;;4956608;28;20203;-73
2022/03/17 10:17:10;;;;;;;2.03;0.70;;;11.00;99.90;;;;;;4957405;28;20239;-73
2022/03/17 10:19:37;;;;;;;2.40;1.20;;;11.10;99.90;;;;;;4975611;28;20274;-72
2022/03/17 10:22:12;;;;;;;0.97;0.60;;;11.10;99.90;;;;;;4975909;28;20300;-73
2022/03/17 10:24:39;;;;;;;1.13;0.70;;;11.00;99.90;;;;;;4975497;28;20207;-73
2022/03/17 10:27:06;;;;;;;1.93;0.77;;;11.00;99.90;;;;;;4975468;28;20259;-73
2022/03/17 10:29:34;;;;;;;3.17;1.13;;;10.90;99.90;;;;;;4973636;28;20234;-73
2022/03/17 10:32:04;;;;;;;1.20;0.87;;;11.00;99.90;;;;;;4955944;28;20524;-73
2022/03/17 10:34:32;;;;;;;1.47;1.10;;;11.00;99.90;;;;;;4970510;28;20599;-73
2022/03/17 10:37:13;;;;;;;2.03;1.10;;;11.10;99.90;;;;;;4975491;28;20245;-73
2022/03/17 10:39:43;;;;;;;3.13;1.00;;;11.30;99.90;;;;;;4975411;28;20230;-73
2022/03/17 10:42:11;;;;;;;4.00;1.00;;;11.30;99.90;;;;;;4972510;28;20203;-73
2022/03/17 10:44:40;;;;;;;4.07;1.30;;;11.40;99.90;;;;;;4965755;28;20219;-73
2022/03/17 10:47:09;;;;;;;2.33;1.20;;;11.40;99.90;;;;;;4974515;28;20207;-73
2022/03/17 10:49:36;;;;;;;2.40;1.30;;;11.20;99.90;;;;;;4974766;28;20251;-73
2022/03/17 10:52:03;;;;;;;1.23;0.87;;;11.30;99.90;;;;;;4967621;28;20208;-73
2022/03/17 10:54:33;;;;;;;1.60;1.17;;;11.40;99.90;;;;;;4974431;28;20211;-73
2022/03/17 10:57:02;;;;;;;3.63;0.97;;;11.70;99.90;;;;;;4973602;28;20293;-72
2022/03/17 10:59:42;;;;;;;2.83;1.10;;;11.70;99.90;;;;;;4969345;28;20227;-72
2022/03/17 11:02:09;;;;;;;1.10;1.00;;;11.70;99.90;;;;;;4955522;28;20203;-72
2022/03/17 11:04:38;;;;;;;2.10;1.50;;;11.70;99.90;;;;;;4955393;28;20218;-72
2022/03/17 11:07:06;;;;;;;2.40;1.30;;;11.70;99.90;;;;;;4955584;28;20286;-72
2022/03/17 11:09:38;;;;;;;2.83;1.47;;;11.80;99.90;;;;;;4968326;28;20227;-72
2022/03/17 11:12:07;;;;;;;1.83;1.10;;;11.60;99.90;;;;;;4973976;28;20607;-72
2022/03/17 11:14:34;;;;;;;2.00;1.40;;;11.60;99.90;;;;;;4973127;28;20199;-72
2022/03/17 11:17:03;;;;;;;3.60;2.10;;;11.50;99.90;;;;;;4972044;28;20242;-72
2022/03/17 11:19:31;;;;;;;1.97;1.30;;;11.50;99.90;;;;;;4974477;28;20371;-72
2022/03/17 11:22:08;;;;;;;1.60;1.23;;;11.40;99.90;;;;;;4974080;28;20211;-72
2022/03/17 11:24:37;;;;;;;1.70;1.20;;;11.50;99.90;;;;;;4969509;28;20207;-72
2022/03/17 11:27:09;;;;;;;3.23;1.50;;;11.60;99.90;;;;;;4956010;28;20238;-72
2022/03/17 11:29:41;;;;;;;3.67;1.40;;;11.70;99.90;;;;;;4963150;28;20271;-72
2022/03/17 11:32:24;;;;;;;1.33;1.23;;;11.70;99.90;;;;;;4969162;28;20627;-72
2022/03/17 11:34:51;;;;;;;3.13;1.50;;;11.80;99.90;;;;;;4961297;28;20666;-72
2022/03/17 11:37:25;;;;;;;3.03;1.20;;;12.00;99.90;;;;;;4973530;28;20231;-72
2022/03/17 11:39:56;;;;;;;1.23;1.13;;;12.10;99.90;;;;;;4973560;28;20213;-72
2022/03/17 11:42:40;;;;;;;4.50;1.20;;;12.10;99.90;;;;;;4962068;28;20703;-72
2022/03/17 11:45:42;;;;;;;2.27;1.33;;;12.20;99.90;;;;;;4954386;29;20215;-72
2022/03/17 11:48:14;;;;;;;2.70;1.10;;;12.30;99.90;;;;;;4970128;28;20630;-72
2022/03/17 11:50:48;;;;;;;3.40;1.13;;;12.40;99.90;;;;;;4973463;28;20286;-72
2022/03/17 11:53:38;;;;;;;2.07;1.07;;;12.60;99.90;;;;;;4973737;28;20247;-72
2022/03/17 11:56:09;;;;;;;5.87;1.20;;;12.70;99.90;;;;;;4973857;28;20711;-72
2022/03/17 11:58:42;;;;;;;1.67;1.07;;;12.70;99.90;;;;;;4973014;28;20286;-72
2022/03/17 12:01:11;;;;;;;2.20;1.60;;;12.50;99.90;;;;;;4973151;28;20246;-72
2022/03/17 12:03:42;;;;;;;1.27;0.80;;;12.50;99.90;;;;;;4973460;28;20233;-72
2022/03/17 12:06:11;;;;;;;5.30;1.20;;;12.40;99.90;;;;;;4969721;28;20563;-74
2022/03/17 12:08:39;;;;;;;2.87;1.00;;;12.20;99.90;;;;;;4972779;28;20223;-71
2022/03/17 12:11:13;;;;;;;2.07;1.40;;;12.20;99.90;;;;;;4972919;28;20211;-73
2022/03/17 12:13:40;;;;;;;3.20;1.20;;;12.20;99.90;;;;;;4951594;28;20215;-71
2022/03/17 12:16:08;;;;;;;1.93;1.00;;;12.30;99.90;;;;;;4952904;28;20208;-72
2022/03/17 12:19:00;;;;;;;1.90;1.10;;;12.30;99.90;;;;;;4960572;28;20261;-73
2022/03/17 12:22:00;;;;;;;3.47;1.40;;;12.50;99.90;;;;;;4971035;28;20215;-74
2022/03/17 12:24:35;;;;;;;1.30;0.90;;;12.70;99.90;;;;;;4966377;28;20207;-70
2022/03/17 12:27:09;;;;;;;1.43;1.00;;;12.70;99.90;;;;;;4971324;28;20210;-74
2022/03/17 12:29:37;;;;;;;2.00;1.17;;;12.70;99.90;;;;;;4960569;28;20219;-73
2022/03/17 12:32:08;;;;;;;2.50;1.23;;;12.70;99.90;;;;;;4956463;28;20214;-75
2022/03/17 12:34:36;;;;;;;2.80;1.23;;;12.50;99.90;;;;;;4966146;28;20206;-79
2022/03/17 12:37:04;;;;;;;2.10;1.10;;;12.50;99.90;;;;;;4953292;28;20232;-76
2022/03/17 12:39:32;;;;;;;1.77;1.20;;;12.50;99.90;;;;;;4952451;28;20236;-76
2022/03/17 12:42:01;;;;;;;1.40;0.90;;;12.40;99.90;;;;;;4956778;28;20211;-74
2022/03/17 12:44:29;;;;;;;2.63;1.00;;;12.40;99.90;;;;;;4972322;28;20211;-76
2022/03/17 12:46:57;;;;;;;1.23;1.00;;;12.40;99.90;;;;;;4972318;28;20227;-72
2022/03/17 12:49:24;;;;;;;6.40;1.20;;;12.60;99.90;;;;;;4971774;28;20231;-73
2022/03/17 12:51:51;;;;;;;2.50;1.07;;;12.60;99.90;;;;;;4969911;28;20211;-74
2022/03/17 12:54:18;;;;;;;3.23;1.00;;;12.40;99.90;;;;;;4970484;28;20203;-74
2022/03/17 12:56:52;;;;;;;3.70;1.30;;;12.50;99.90;;;;;;4970110;28;20203;-74
2022/03/17 12:59:20;;;;;;;2.57;1.20;;;12.40;99.90;;;;;;4971904;28;20231;-73
2022/03/17 13:01:49;;;;;;;1.83;1.00;;;12.50;99.90;;;;;;4971870;28;20666;-76
2022/03/17 13:04:16;;;;;;;1.87;1.20;;;12.50;99.90;;;;;;4971961;28;20207;-75
2022/03/17 13:06:55;;;;;;;1.97;1.20;;;12.70;99.90;;;;;;4971818;28;20207;-76